sensor_id;sensor_type;location;lat;lon;timestamp;pressure;altitude;pressure_sealevel;temperature;humidity
20019;BME280;10170;42.502;26.526;2022-08-02T00:00:33;99333.31;;;21.70;100.00
20019;BME280;10170;42.502;26.526;2022-08-02T00:03:00;99329.03;;;21.64;100.00
20019;BME280;10170;42.502;26.526;2022-08-02T00:05:27;99319.69;;;21.51;100.00
20019;BME280;10170;42.502;26.526;2022-08-02T00:07:54;99328.91;;;21.50;100.00
20019;BME280;10170;42.502;26.526;2022-08-02T00:10:21;99330.28;;;21.48;100.00
20019;BME280;10170;42.502;26.526;2022-08-02T00:12:47;99330.28;;;21.48;100.00
20019;BME280;10170;42.502;26.526;2022-08-02T00:15:14;99323.94;;;21.62;100.00
20019;BME280;10170;42.502;26.526;2022-08-02T00:17:43;99326.88;;;21.66;100.00
20019;BME280;10170;42.502;26.526;2022-08-02T00:20:13;99325.44;;;21.73;100.00
20019;BME280;10170;42.502;26.526;2022-08-02T00:22:40;99332.63;;;21.88;100.00
20019;BME280;10170;42.502;26.526;2022-08-02T00:25:07;99333.16;;;22.14;100.00
20019;BME280;10170;42.502;26.526;2022-08-02T00:27:34;99327.56;;;22.05;100.00
20019;BME280;10170;42.502;26.526;2022-08-02T00:30:01;99338.34;;;22.10;100.00
20019;BME280;10170;42.502;26.526;2022-08-02T00:32:28;99326.31;;;21.98;100.00
20019;BME280;10170;42.502;26.526;2022-08-02T00:34:55;99325.31;;;22.12;100.00
20019;BME280;10170;42.502;26.526;2022-08-02T00:37:22;99325.66;;;22.29;100.00
20019;BME280;10170;42.502;26.526;2022-08-02T00:39:49;99329.50;;;22.47;100.00
20019;BME280;10170;42.502;26.526;2022-08-02T00:42:16;99311.94;;;22.44;100.00
20019;BME280;10170;42.502;26.526;2022-08-02T00:44:42;99329.63;;;22.60;100.00
20019;BME280;10170;42.502;26.526;2022-08-02T00:47:09;99336.50;;;22.71;100.00
20019;BME280;10170;42.502;26.526;2022-08-02T00:49:44;99333.66;;;22.63;100.00
20019;BME280;10170;42.502;26.526;2022-08-02T00:52:11;99336.22;;;22.73;100.00
20019;BME280;10170;42.502;26.526;2022-08-02T00:54:42;99339.09;;;22.81;100.00
20019;BME280;10170;42.502;26.526;2022-08-02T00:57:08;99314.16;;;22.61;100.00
20019;BME280;10170;42.502;26.526;2022-08-02T00:59:35;99319.69;;;22.51;100.00
20019;BME280;10170;42.502;26.526;2022-08-02T01:02:02;99324.59;;;22.49;100.00
20019;BME280;10170;42.502;26.526;2022-08-02T01:04:29;99329.09;;;22.77;100.00
20019;BME280;10170;42.502;26.526;2022-08-02T01:07:02;99329.78;;;22.69;100.00
20019;BME280;10170;42.502;26.526;2022-08-02T01:09:43;99325.06;;;22.56;100.00
20019;BME280;10170;42.502;26.526;2022-08-02T01:12:11;99320.69;;;22.36;100.00
20019;BME280;10170;42.502;26.526;2022-08-02T01:14:44;99322.47;;;22.46;100.00
20019;BME280;10170;42.502;26.526;2022-08-02T01:21:00;99327.00;;;22.50;100.00
20019;BME280;10170;42.502;26.526;2022-08-02T01:23:38;99333.31;;;22.46;100.00
20019;BME280;10170;42.502;26.526;2022-08-02T01:36:51;99323.59;;;21.98;100.00
20019;BME280;10170;42.502;26.526;2022-08-02T01:39:25;99321.34;;;21.81;100.00
20019;BME280;10170;42.502;26.526;2022-08-02T01:41:58;99311.38;;;21.71;100.00
20019;BME280;10170;42.502;26.526;2022-08-02T01:44:29;99315.97;;;21.99;100.00
20019;BME280;10170;42.502;26.526;2022-08-02T01:47:01;99326.66;;;22.15;100.00
20019;BME280;10170;42.502;26.526;2022-08-02T01:49:29;99332.41;;;22.08;100.00
20019;BME280;10170;42.502;26.526;2022-08-02T01:51:59;99329.13;;;22.11;100.00
20019;BME280;10170;42.502;26.526;2022-08-02T01:54:48;99331.91;;;22.06;100.00
20019;BME280;10170;42.502;26.526;2022-08-02T01:57:16;99331.81;;;22.35;100.00
20019;BME280;10170;42.502;26.526;2022-08-02T01:59:47;99324.47;;;22.59;100.00
20019;BME280;10170;42.502;26.526;2022-08-02T02:02:15;99325.88;;;22.56;100.00
20019;BME280;10170;42.502;26.526;2022-08-02T02:04:46;99327.78;;;22.32;100.00
20019;BME280;10170;42.502;26.526;2022-08-02T02:07:15;99322.59;;;22.36;100.00
20019;BME280;10170;42.502;26.526;2022-08-02T02:09:45;99326.75;;;22.28;100.00
20019;BME280;10170;42.502;26.526;2022-08-02T02:12:17;99336.03;;;22.22;100.00
20019;BME280;10170;42.502;26.526;2022-08-02T02:14:46;99325.50;;;22.21;100.00
20019;BME280;10170;42.502;26.526;2022-08-02T02:17:19;99342.28;;;22.23;100.00
20019;BME280;10170;42.502;26.526;2022-08-02T02:20:12;99273.81;;;22.17;100.00
20019;BME280;10170;42.502;26.526;2022-08-02T02:22:39;99342.16;;;22.09;100.00
20019;BME280;10170;42.502;26.526;2022-08-02T02:25:08;99334.16;;;21.99;100.00
20019;BME280;10170;42.502;26.526;2022-08-02T02:27:38;99335.75;;;22.00;100.00
20019;BME280;10170;42.502;26.526;2022-08-02T02:30:10;99340.53;;;22.08;100.00
20019;BME280;10170;42.502;26.526;2022-08-02T02:32:39;99338.13;;;22.07;100.00
20019;BME280;10170;42.502;26.526;2022-08-02T02:35:07;99327.63;;;22.00;100.00
20019;BME280;10170;42.502;26.526;2022-08-02T02:37:37;99333.63;;;22.21;100.00
20019;BME280;10170;42.502;26.526;2022-08-02T02:40:05;99328.06;;;22.31;100.00
20019;BME280;10170;42.502;26.526;2022-08-02T02:42:33;99333.13;;;22.37;100.00
20019;BME280;10170;42.502;26.526;2022-08-02T02:45:02;99340.03;;;22.30;100.00
20019;BME280;10170;42.502;26.526;2022-08-02T02:47:30;99343.63;;;22.44;100.00
20019;BME280;10170;42.502;26.526;2022-08-02T02:50:08;99337.84;;;22.50;100.00
20019;BME280;10170;42.502;26.526;2022-08-02T02:52:39;99340.75;;;22.59;100.00
20019;BME280;10170;42.502;26.526;2022-08-02T02:55:07;99341.78;;;22.81;100.00
20019;BME280;10170;42.502;26.526;2022-08-02T02:57:35;99346.13;;;22.64;100.00
20019;BME280;10170;42.502;26.526;2022-08-02T03:00:06;99336.34;;;22.39;100.00
20019;BME280;10170;42.502;26.526;2022-08-02T03:02:39;99335.78;;;22.42;100.00
20019;BME280;10170;42.502;26.526;2022-08-02T03:05:09;99350.88;;;22.48;100.00
20019;BME280;10170;42.502;26.526;2022-08-02T03:07:37;99348.31;;;22.62;100.00
20019;BME280;10170;42.502;26.526;2022-08-02T03:10:05;99351.31;;;22.79;100.00
20019;BME280;10170;42.502;26.526;2022-08-02T03:12:33;99346.97;;;22.59;100.00
20019;BME280;10170;42.502;26.526;2022-08-02T03:15:04;99351.75;;;22.44;100.00
20019;BME280;10170;42.502;26.526;2022-08-02T03:17:42;99345.84;;;22.18;100.00
20019;BME280;10170;42.502;26.526;2022-08-02T03:20:14;99361.50;;;22.21;100.00
20019;BME280;10170;42.502;26.526;2022-08-02T03:22:43;99363.34;;;22.26;100.00
20019;BME280;10170;42.502;26.526;2022-08-02T03:25:11;99363.41;;;22.44;100.00
20019;BME280;10170;42.502;26.526;2022-08-02T03:27:38;99372.09;;;22.41;100.00
20019;BME280;10170;42.502;26.526;2022-08-02T03:30:07;99371.56;;;22.44;100.00
20019;BME280;10170;42.502;26.526;2022-08-02T03:32:37;99357.69;;;21.98;100.00
20019;BME280;10170;42.502;26.526;2022-08-02T03:35:05;99378.69;;;22.12;100.00
20019;BME280;10170;42.502;26.526;2022-08-02T03:37:34;99383.88;;;22.32;100.00
20019;BME280;10170;42.502;26.526;2022-08-02T03:40:02;99382.03;;;22.27;100.00
20019;BME280;10170;42.502;26.526;2022-08-02T03:42:31;99391.25;;;22.26;100.00
20019;BME280;10170;42.502;26.526;2022-08-02T03:44:58;99380.75;;;22.20;100.00
20019;BME280;10170;42.502;26.526;2022-08-02T03:47:33;99402.59;;;22.57;100.00
20019;BME280;10170;42.502;26.526;2022-08-02T03:50:01;99403.38;;;22.57;100.00
20019;BME280;10170;42.502;26.526;2022-08-02T03:52:28;99409.44;;;22.73;100.00
20019;BME280;10170;42.502;26.526;2022-08-02T03:54:58;99397.31;;;22.42;100.00
20019;BME280;10170;42.502;26.526;2022-08-02T03:57:25;99403.00;;;22.17;100.00
20019;BME280;10170;42.502;26.526;2022-08-02T03:59:52;99407.06;;;22.19;100.00
20019;BME280;10170;42.502;26.526;2022-08-02T04:02:19;99411.69;;;22.42;100.00
20019;BME280;10170;42.502;26.526;2022-08-02T04:04:46;99405.16;;;22.43;100.00
20019;BME280;10170;42.502;26.526;2022-08-02T04:07:12;99400.25;;;22.22;100.00
20019;BME280;10170;42.502;26.526;2022-08-02T04:09:43;99414.94;;;22.39;100.00
20019;BME280;10170;42.502;26.526;2022-08-02T04:12:10;99407.66;;;22.63;100.00
20019;BME280;10170;42.502;26.526;2022-08-02T04:14:38;99402.88;;;22.50;100.00
20019;BME280;10170;42.502;26.526;2022-08-02T04:17:07;99414.56;;;22.74;100.00
20019;BME280;10170;42.502;26.526;2022-08-02T04:19:42;99420.75;;;22.56;100.00
20019;BME280;10170;42.502;26.526;2022-08-02T04:22:28;99419.91;;;22.32;100.00
20019;BME280;10170;42.502;26.526;2022-08-02T04:25:01;99418.53;;;22.35;100.00
20019;BME280;10170;42.502;26.526;2022-08-02T04:27:30;99413.28;;;22.43;100.00
20019;BME280;10170;42.502;26.526;2022-08-02T04:30:17;99413.63;;;22.37;100.00
20019;BME280;10170;42.502;26.526;2022-08-02T04:32:45;99409.13;;;22.51;100.00
20019;BME280;10170;42.502;26.526;2022-08-02T04:35:12;99418.25;;;22.60;100.00
20019;BME280;10170;42.502;26.526;2022-08-02T04:37:47;99418.47;;;22.40;100.00
20019;BME280;10170;42.502;26.526;2022-08-02T04:40:34;99420.34;;;22.39;100.00
20019;BME280;10170;42.502;26.526;2022-08-02T04:43:01;99421.47;;;22.38;100.00
20019;BME280;10170;42.502;26.526;2022-08-02T04:45:28;99424.69;;;22.40;100.00
20019;BME280;10170;42.502;26.526;2022-08-02T04:47:55;99418.06;;;22.28;100.00
20019;BME280;10170;42.502;26.526;2022-08-02T04:50:32;99425.78;;;22.39;100.00
20019;BME280;10170;42.502;26.526;2022-08-02T04:52:59;99426.75;;;22.48;100.00
20019;BME280;10170;42.502;26.526;2022-08-02T04:55:26;99416.41;;;22.55;100.00
20019;BME280;10170;42.502;26.526;2022-08-02T04:57:55;99439.94;;;22.60;100.00
20019;BME280;10170;42.502;26.526;2022-08-02T05:00:25;99428.94;;;22.46;100.00
20019;BME280;10170;42.502;26.526;2022-08-02T05:02:55;99432.34;;;22.62;100.00
20019;BME280;10170;42.502;26.526;2022-08-02T05:05:22;99418.56;;;22.58;100.00
20019;BME280;10170;42.502;26.526;2022-08-02T05:07:49;99414.44;;;22.61;100.00
20019;BME280;10170;42.502;26.526;2022-08-02T05:10:16;99430.38;;;22.67;100.00
20019;BME280;10170;42.502;26.526;2022-08-02T05:12:43;99430.91;;;22.69;100.00
20019;BME280;10170;42.502;26.526;2022-08-02T05:15:11;99426.81;;;22.90;100.00
20019;BME280;10170;42.502;26.526;2022-08-02T05:17:39;99432.41;;;22.99;100.00
20019;BME280;10170;42.502;26.526;2022-08-02T05:20:17;99427.94;;;23.08;100.00
20019;BME280;10170;42.502;26.526;2022-08-02T05:22:44;99436.59;;;23.29;100.00
20019;BME280;10170;42.502;26.526;2022-08-02T05:25:11;99436.25;;;23.35;100.00
20019;BME280;10170;42.502;26.526;2022-08-02T05:27:39;99444.53;;;23.44;100.00
20019;BME280;10170;42.502;26.526;2022-08-02T05:30:06;99444.44;;;23.49;100.00
20019;BME280;10170;42.502;26.526;2022-08-02T05:32:33;99447.88;;;23.73;100.00
20019;BME280;10170;42.502;26.526;2022-08-02T05:35:00;99449.25;;;23.89;100.00
20019;BME280;10170;42.502;26.526;2022-08-02T05:37:28;99452.88;;;23.98;100.00
20019;BME280;10170;42.502;26.526;2022-08-02T05:39:58;99453.94;;;23.83;100.00
20019;BME280;10170;42.502;26.526;2022-08-02T05:42:29;99455.09;;;23.96;100.00
20019;BME280;10170;42.502;26.526;2022-08-02T05:44:56;99459.59;;;24.06;100.00
20019;BME280;10170;42.502;26.526;2022-08-02T05:47:23;99453.34;;;24.19;100.00
20019;BME280;10170;42.502;26.526;2022-08-02T05:49:51;99465.56;;;24.35;100.00
20019;BME280;10170;42.502;26.526;2022-08-02T05:52:19;99465.44;;;24.26;100.00
20019;BME280;10170;42.502;26.526;2022-08-02T05:58:02;99466.22;;;24.13;100.00
20019;BME280;10170;42.502;26.526;2022-08-02T06:00:32;99450.53;;;24.10;100.00
20019;BME280;10170;42.502;26.526;2022-08-02T06:03:16;99468.97;;;24.27;100.00
20019;BME280;10170;42.502;26.526;2022-08-02T06:05:58;99467.69;;;24.38;100.00
20019;BME280;10170;42.502;26.526;2022-08-02T06:08:33;99474.50;;;24.22;100.00
20019;BME280;10170;42.502;26.526;2022-08-02T06:11:04;99476.22;;;24.31;100.00
20019;BME280;10170;42.502;26.526;2022-08-02T06:13:32;99481.19;;;24.43;100.00
20019;BME280;10170;42.502;26.526;2022-08-02T06:15:59;99466.97;;;24.46;100.00
20019;BME280;10170;42.502;26.526;2022-08-02T06:18:27;99480.00;;;24.62;100.00
20019;BME280;10170;42.502;26.526;2022-08-02T06:20:56;99481.44;;;24.73;100.00
20019;BME280;10170;42.502;26.526;2022-08-02T06:23:46;99471.84;;;24.62;100.00
20019;BME280;10170;42.502;26.526;2022-08-02T06:26:26;99484.56;;;24.80;100.00
20019;BME280;10170;42.502;26.526;2022-08-02T06:28:55;99487.28;;;24.80;100.00
20019;BME280;10170;42.502;26.526;2022-08-02T06:31:23;99496.66;;;24.88;100.00
20019;BME280;10170;42.502;26.526;2022-08-02T06:33:50;99477.88;;;24.86;100.00
20019;BME280;10170;42.502;26.526;2022-08-02T06:37:24;99488.34;;;25.07;100.00
20019;BME280;10170;42.502;26.526;2022-08-02T06:39:43;99489.53;;;25.28;100.00
20019;BME280;10170;42.502;26.526;2022-08-02T06:42:14;99492.66;;;25.48;100.00
20019;BME280;10170;42.502;26.526;2022-08-02T06:44:53;99488.84;;;25.71;100.00
20019;BME280;10170;42.502;26.526;2022-08-02T06:47:24;99486.78;;;26.21;93.38
20019;BME280;10170;42.502;26.526;2022-08-02T06:49:51;99483.72;;;25.92;94.64
20019;BME280;10170;42.502;26.526;2022-08-02T06:52:22;99495.03;;;26.30;90.66
20019;BME280;10170;42.502;26.526;2022-08-02T06:54:55;99476.75;;;26.30;89.23
20019;BME280;10170;42.502;26.526;2022-08-02T06:57:22;99493.25;;;26.56;87.55
20019;BME280;10170;42.502;26.526;2022-08-02T06:59:49;99483.59;;;26.89;81.62
20019;BME280;10170;42.502;26.526;2022-08-02T07:02:16;99480.03;;;27.36;79.57
20019;BME280;10170;42.502;26.526;2022-08-02T07:04:43;99485.31;;;27.41;78.71
20019;BME280;10170;42.502;26.526;2022-08-02T07:07:09;99475.69;;;27.35;78.61
20019;BME280;10170;42.502;26.526;2022-08-02T07:09:36;99483.06;;;27.86;74.86
20019;BME280;10170;42.502;26.526;2022-08-02T07:12:03;99478.09;;;27.37;77.50
20019;BME280;10170;42.502;26.526;2022-08-02T07:14:30;99470.72;;;27.63;76.87
20019;BME280;10170;42.502;26.526;2022-08-02T07:17:01;99478.75;;;28.11;75.14
20019;BME280;10170;42.502;26.526;2022-08-02T07:19:28;99470.19;;;28.21;75.58
20019;BME280;10170;42.502;26.526;2022-08-02T07:22:04;99477.44;;;28.25;73.15
20019;BME280;10170;42.502;26.526;2022-08-02T07:24:31;99456.22;;;28.14;72.30
20019;BME280;10170;42.502;26.526;2022-08-02T07:26:58;99459.22;;;28.38;71.36
20019;BME280;10170;42.502;26.526;2022-08-02T07:29:41;99471.00;;;28.04;77.04
20019;BME280;10170;42.502;26.526;2022-08-02T07:32:11;99472.84;;;28.46;70.97
20019;BME280;10170;42.502;26.526;2022-08-02T07:34:38;99476.03;;;28.94;67.96
20019;BME280;10170;42.502;26.526;2022-08-02T07:37:07;99469.28;;;28.63;70.05
20019;BME280;10170;42.502;26.526;2022-08-02T07:39:54;99460.72;;;28.93;67.67
20019;BME280;10170;42.502;26.526;2022-08-02T07:42:22;99458.53;;;29.16;67.14
20019;BME280;10170;42.502;26.526;2022-08-02T07:44:49;99457.78;;;29.28;65.69
20019;BME280;10170;42.502;26.526;2022-08-02T07:47:17;99470.63;;;29.36;65.50
20019;BME280;10170;42.502;26.526;2022-08-02T07:49:44;99468.56;;;29.33;65.89
20019;BME280;10170;42.502;26.526;2022-08-02T07:52:11;99467.69;;;29.20;66.48
20019;BME280;10170;42.502;26.526;2022-08-02T07:54:38;99463.53;;;29.14;64.51
20019;BME280;10170;42.502;26.526;2022-08-02T07:57:05;99467.69;;;29.41;63.02
20019;BME280;10170;42.502;26.526;2022-08-02T07:59:32;99475.06;;;29.49;63.92
20019;BME280;10170;42.502;26.526;2022-08-02T08:01:59;99468.22;;;29.34;63.47
20019;BME280;10170;42.502;26.526;2022-08-02T08:04:26;99458.66;;;29.40;65.55
20019;BME280;10170;42.502;26.526;2022-08-02T08:06:53;99469.09;;;29.47;61.58
20019;BME280;10170;42.502;26.526;2022-08-02T08:09:20;99457.28;;;29.05;63.31
20019;BME280;10170;42.502;26.526;2022-08-02T08:11:47;99466.59;;;29.33;63.79
20019;BME280;10170;42.502;26.526;2022-08-02T08:14:14;99461.41;;;29.20;62.44
20019;BME280;10170;42.502;26.526;2022-08-02T08:16:42;99469.44;;;29.45;60.76
20019;BME280;10170;42.502;26.526;2022-08-02T08:19:09;99457.84;;;29.19;62.85
20019;BME280;10170;42.502;26.526;2022-08-02T08:21:36;99460.22;;;29.70;60.08
20019;BME280;10170;42.502;26.526;2022-08-02T08:24:03;99456.13;;;30.09;60.07
20019;BME280;10170;42.502;26.526;2022-08-02T08:26:30;99452.34;;;30.58;60.46
20019;BME280;10170;42.502;26.526;2022-08-02T08:28:57;99455.44;;;30.12;59.13
20019;BME280;10170;42.502;26.526;2022-08-02T08:31:24;99450.50;;;30.62;58.73
20019;BME280;10170;42.502;26.526;2022-08-02T08:33:52;99458.19;;;30.69;57.67
20019;BME280;10170;42.502;26.526;2022-08-02T08:36:19;99456.94;;;31.02;56.74
20019;BME280;10170;42.502;26.526;2022-08-02T08:38:46;99448.50;;;30.95;56.03
20019;BME280;10170;42.502;26.526;2022-08-02T08:41:17;99449.47;;;30.55;55.81
20019;BME280;10170;42.502;26.526;2022-08-02T08:43:46;99452.59;;;30.65;54.91
20019;BME280;10170;42.502;26.526;2022-08-02T08:46:30;99442.16;;;30.02;56.63
20019;BME280;10170;42.502;26.526;2022-08-02T08:48:59;99447.44;;;30.19;57.64
20019;BME280;10170;42.502;26.526;2022-08-02T08:51:30;99458.44;;;30.19;56.84
20019;BME280;10170;42.502;26.526;2022-08-02T08:54:03;99450.13;;;29.83;57.02
20019;BME280;10170;42.502;26.526;2022-08-02T08:56:34;99445.47;;;30.52;58.00
20019;BME280;10170;42.502;26.526;2022-08-02T08:59:04;99444.56;;;30.48;56.44
20019;BME280;10170;42.502;26.526;2022-08-02T09:01:32;99435.78;;;29.57;58.07
20019;BME280;10170;42.502;26.526;2022-08-02T09:04:17;99434.38;;;30.37;55.79
20019;BME280;10170;42.502;26.526;2022-08-02T09:06:44;99437.06;;;30.81;57.16
20019;BME280;10170;42.502;26.526;2022-08-02T09:09:10;99433.97;;;30.83;57.55
20019;BME280;10170;42.502;26.526;2022-08-02T09:11:37;99435.75;;;31.15;54.99
20019;BME280;10170;42.502;26.526;2022-08-02T09:14:04;99432.59;;;31.29;54.51
20019;BME280;10170;42.502;26.526;2022-08-02T09:16:32;99428.19;;;31.64;54.34
20019;BME280;10170;42.502;26.526;2022-08-02T09:19:01;99433.31;;;31.26;53.38
20019;BME280;10170;42.502;26.526;2022-08-02T09:21:41;99440.22;;;31.08;52.89
20019;BME280;10170;42.502;26.526;2022-08-02T09:24:19;99429.78;;;31.13;52.03
20019;BME280;10170;42.502;26.526;2022-08-02T09:26:48;99424.56;;;31.75;52.62
20019;BME280;10170;42.502;26.526;2022-08-02T09:29:16;99419.50;;;31.50;51.57
20019;BME280;10170;42.502;26.526;2022-08-02T09:31:47;99416.78;;;32.36;48.32
20019;BME280;10170;42.502;26.526;2022-08-02T09:34:15;99406.38;;;31.71;51.16
20019;BME280;10170;42.502;26.526;2022-08-02T09:36:45;99418.25;;;32.02;49.82
20019;BME280;10170;42.502;26.526;2022-08-02T09:39:14;99418.50;;;31.70;49.25
20019;BME280;10170;42.502;26.526;2022-08-02T09:41:43;99406.22;;;31.00;50.17
20019;BME280;10170;42.502;26.526;2022-08-02T09:44:12;99409.38;;;30.18;52.38
20019;BME280;10170;42.502;26.526;2022-08-02T09:46:43;99417.78;;;30.33;52.22
20019;BME280;10170;42.502;26.526;2022-08-02T09:49:15;99410.25;;;29.65;54.60
20019;BME280;10170;42.502;26.526;2022-08-02T09:54:18;99406.56;;;30.98;50.19
20019;BME280;10170;42.502;26.526;2022-08-02T09:57:03;99411.38;;;30.41;50.91
20019;BME280;10170;42.502;26.526;2022-08-02T09:59:30;99414.03;;;30.38;50.48
20019;BME280;10170;42.502;26.526;2022-08-02T10:01:58;99417.25;;;29.95;50.68
20019;BME280;10170;42.502;26.526;2022-08-02T10:04:31;99408.31;;;29.98;51.69
20019;BME280;10170;42.502;26.526;2022-08-02T10:07:17;99403.66;;;30.11;51.73
20019;BME280;10170;42.502;26.526;2022-08-02T10:09:47;99386.63;;;30.17;52.02
20019;BME280;10170;42.502;26.526;2022-08-02T10:12:14;99402.97;;;30.14;51.93
20019;BME280;10170;42.502;26.526;2022-08-02T10:14:42;99404.50;;;30.35;51.11
20019;BME280;10170;42.502;26.526;2022-08-02T10:17:09;99402.56;;;30.36;52.18
20019;BME280;10170;42.502;26.526;2022-08-02T10:19:36;99405.91;;;30.53;52.70
20019;BME280;10170;42.502;26.526;2022-08-02T10:22:23;99400.88;;;30.91;52.51
20019;BME280;10170;42.502;26.526;2022-08-02T10:24:50;99405.78;;;30.98;53.04
20019;BME280;10170;42.502;26.526;2022-08-02T10:27:19;99411.88;;;31.31;51.92
20019;BME280;10170;42.502;26.526;2022-08-02T10:29:48;99401.16;;;31.81;50.45
20019;BME280;10170;42.502;26.526;2022-08-02T10:32:37;99366.00;;;32.34;47.59
20019;BME280;10170;42.502;26.526;2022-08-02T10:35:10;99401.16;;;32.71;46.80
20019;BME280;10170;42.502;26.526;2022-08-02T10:38:01;99403.00;;;33.37;44.56
20019;BME280;10170;42.502;26.526;2022-08-02T10:40:49;99405.78;;;33.75;44.00
20019;BME280;10170;42.502;26.526;2022-08-02T10:46:37;99402.41;;;33.09;45.67
20019;BME280;10170;42.502;26.526;2022-08-02T10:49:13;99400.47;;;33.09;44.32
20019;BME280;10170;42.502;26.526;2022-08-02T10:56:55;99385.09;;;33.84;46.66
20019;BME280;10170;42.502;26.526;2022-08-02T10:59:33;99393.38;;;33.84;45.17
20019;BME280;10170;42.502;26.526;2022-08-02T11:02:04;99390.69;;;33.69;45.14
20019;BME280;10170;42.502;26.526;2022-08-02T11:07:26;99384.59;;;34.24;43.04
20019;BME280;10170;42.502;26.526;2022-08-02T11:09:56;99384.47;;;32.99;45.05
20019;BME280;10170;42.502;26.526;2022-08-02T11:12:25;99371.00;;;32.78;44.44
20019;BME280;10170;42.502;26.526;2022-08-02T11:15:02;99383.56;;;31.70;46.61
20019;BME280;10170;42.502;26.526;2022-08-02T11:17:56;99369.38;;;30.89;47.54
20019;BME280;10170;42.502;26.526;2022-08-02T11:20:25;99380.59;;;31.08;47.34
20019;BME280;10170;42.502;26.526;2022-08-02T11:23:32;99384.19;;;31.24;47.15
20019;BME280;10170;42.502;26.526;2022-08-02T11:28:57;99379.63;;;32.77;47.08
20019;BME280;10170;42.502;26.526;2022-08-02T11:31:24;99376.50;;;32.94;46.04
20019;BME280;10170;42.502;26.526;2022-08-02T11:33:51;99377.50;;;32.70;46.36
20019;BME280;10170;42.502;26.526;2022-08-02T11:36:19;99378.16;;;32.64;45.56
20019;BME280;10170;42.502;26.526;2022-08-02T11:38:48;99375.09;;;32.69;45.47
20019;BME280;10170;42.502;26.526;2022-08-02T11:41:19;99377.53;;;32.39;46.91
20019;BME280;10170;42.502;26.526;2022-08-02T11:44:06;99369.53;;;32.03;47.29
20019;BME280;10170;42.502;26.526;2022-08-02T11:46:33;99375.59;;;31.81;46.24
20019;BME280;10170;42.502;26.526;2022-08-02T11:49:18;99366.72;;;31.72;46.49
20019;BME280;10170;42.502;26.526;2022-08-02T11:51:57;99378.50;;;31.57;46.63
20019;BME280;10170;42.502;26.526;2022-08-02T11:54:38;99361.81;;;31.10;47.40
20019;BME280;10170;42.502;26.526;2022-08-02T11:57:20;99373.22;;;31.52;48.26
20019;BME280;10170;42.502;26.526;2022-08-02T11:59:52;99366.03;;;31.47;47.45
20019;BME280;10170;42.502;26.526;2022-08-02T12:02:21;99366.22;;;31.82;47.68
20019;BME280;10170;42.502;26.526;2022-08-02T12:04:56;99365.47;;;32.94;46.83
20019;BME280;10170;42.502;26.526;2022-08-02T12:07:43;99359.38;;;33.80;44.15
20019;BME280;10170;42.502;26.526;2022-08-02T12:10:14;99363.44;;;34.32;42.14
20019;BME280;10170;42.502;26.526;2022-08-02T12:17:58;99354.38;;;33.10;43.76
20019;BME280;10170;42.502;26.526;2022-08-02T12:20:44;99362.44;;;32.64;43.76
20019;BME280;10170;42.502;26.526;2022-08-02T12:23:11;99366.28;;;32.44;43.93
20019;BME280;10170;42.502;26.526;2022-08-02T12:25:38;99354.97;;;31.59;45.73
20019;BME280;10170;42.502;26.526;2022-08-02T12:30:51;99350.72;;;31.34;46.55
20019;BME280;10170;42.502;26.526;2022-08-02T12:33:21;99364.50;;;31.22;46.12
20019;BME280;10170;42.502;26.526;2022-08-02T12:35:48;99361.59;;;31.03;46.92
20019;BME280;10170;42.502;26.526;2022-08-02T12:38:15;99345.03;;;30.87;46.43
20019;BME280;10170;42.502;26.526;2022-08-02T12:40:42;99337.50;;;30.60;46.84
20019;BME280;10170;42.502;26.526;2022-08-02T12:43:19;99356.09;;;31.03;46.50
20019;BME280;10170;42.502;26.526;2022-08-02T12:48:28;99352.50;;;31.54;45.93
20019;BME280;10170;42.502;26.526;2022-08-02T12:51:26;99348.16;;;31.53;46.42
20019;BME280;10170;42.502;26.526;2022-08-02T12:54:22;99344.41;;;31.46;46.11
20019;BME280;10170;42.502;26.526;2022-08-02T12:57:13;99347.31;;;32.27;44.14
20019;BME280;10170;42.502;26.526;2022-08-02T12:59:42;99350.84;;;32.74;43.42
20019;BME280;10170;42.502;26.526;2022-08-02T13:02:11;99350.00;;;32.39;43.35
20019;BME280;10170;42.502;26.526;2022-08-02T13:04:40;99355.00;;;32.84;43.54
20019;BME280;10170;42.502;26.526;2022-08-02T13:07:16;99359.84;;;32.90;43.21
20019;BME280;10170;42.502;26.526;2022-08-02T13:09:42;99343.31;;;32.71;43.75
20019;BME280;10170;42.502;26.526;2022-08-02T13:12:14;99346.44;;;32.54;43.58
20019;BME280;10170;42.502;26.526;2022-08-02T13:14:41;99346.34;;;32.35;44.04
20019;BME280;10170;42.502;26.526;2022-08-02T13:17:09;99350.69;;;32.36;44.91
20019;BME280;10170;42.502;26.526;2022-08-02T13:19:36;99346.72;;;32.02;43.77
20019;BME280;10170;42.502;26.526;2022-08-02T13:22:04;99347.38;;;31.68;44.09
20019;BME280;10170;42.502;26.526;2022-08-02T13:24:36;99344.53;;;31.65;44.24
20019;BME280;10170;42.502;26.526;2022-08-02T13:27:23;99350.75;;;31.77;44.77
20019;BME280;10170;42.502;26.526;2022-08-02T13:29:51;99357.66;;;32.30;43.52
20019;BME280;10170;42.502;26.526;2022-08-02T13:32:19;99346.69;;;32.65;43.10
20019;BME280;10170;42.502;26.526;2022-08-02T13:34:46;99349.47;;;32.34;43.54
20019;BME280;10170;42.502;26.526;2022-08-02T13:37:13;99338.91;;;32.20;45.09
20019;BME280;10170;42.502;26.526;2022-08-02T13:39:40;99357.69;;;31.87;45.18
20019;BME280;10170;42.502;26.526;2022-08-02T13:42:25;99352.22;;;32.18;44.17
20019;BME280;10170;42.502;26.526;2022-08-02T13:44:52;99352.13;;;31.99;44.23
20019;BME280;10170;42.502;26.526;2022-08-02T13:47:19;99351.56;;;31.78;44.50
20019;BME280;10170;42.502;26.526;2022-08-02T13:50:02;99354.16;;;32.02;44.63